Time;durP1;ratioP1;P1;durP2;ratioP2;P2;SDS_P1;SDS_P2;PMS_P1;PMS_P2;Temp;Humidity;BMP_temperature;BMP_pressure;BME280_temperature;BME280_humidity;BME280_pressure;Samples;Min_cycle;Max_cycle;Signal;HPM_P1;HPM_P2
2021/06/30 00:01:08;;;;;;;;;;;14.70;99.90;;;;;;5009565;28;19996;-62
2021/06/30 00:04:01;;;;;;;;;;;14.70;99.90;;;;;;5016668;28;20392;-62
2021/06/30 00:06:55;;;;;;;;;;;14.70;99.90;;;;;;5014660;28;19988;-62
2021/06/30 00:09:48;;;;;;;;;;;14.80;99.90;;;;;;5014792;28;19976;-62
2021/06/30 00:12:42;;;;;;;;;;;14.90;99.90;;;;;;5015314;28;19929;-65
2021/06/30 00:15:36;;;;;;;;;;;14.90;99.90;;;;;;5008836;28;19940;-63
2021/06/30 00:18:31;;;;;;;;;;;15.00;99.90;;;;;;5013746;28;19926;-62
2021/06/30 00:21:24;;;;;;;;;;;15.00;99.90;;;;;;5013829;28;20286;-62
2021/06/30 00:24:17;;;;;;;;;;;15.00;99.90;;;;;;5014135;28;19933;-64
2021/06/30 00:27:11;;;;;;;;;;;15.00;99.90;;;;;;5013929;28;19932;-62
2021/06/30 00:30:06;;;;;;;;;;;14.90;99.90;;;;;;5012483;28;20401;-62
2021/06/30 00:32:59;;;;;;;;;;;15.00;99.90;;;;;;5025183;28;19929;-63
2021/06/30 00:35:56;;;;;;;;;;;15.00;99.90;;;;;;5029497;28;19948;-62
2021/06/30 00:38:50;;;;;;;;;;;15.00;99.90;;;;;;5011643;28;20050;-62
2021/06/30 00:41:46;;;;;;;;;;;15.00;99.90;;;;;;5013963;28;19972;-62
2021/06/30 00:44:41;;;;;;;;;;;14.90;99.90;;;;;;5012217;28;19932;-62
2021/06/30 00:47:35;;;;;;;;;;;15.00;99.90;;;;;;5013138;28;19933;-62
2021/06/30 00:53:47;;;;;;;;;;;14.80;99.90;;;;;;5013645;28;19925;-62
2021/06/30 00:57:08;;;;;;;;;;;14.90;99.90;;;;;;5010813;28;19981;-62
2021/06/30 01:00:02;;;;;;;;;;;14.90;99.90;;;;;;5010757;28;19926;-62
2021/06/30 01:03:21;;;;;;;;;;;14.70;99.90;;;;;;5010822;28;19962;-62
2021/06/30 01:06:14;;;;;;;;;;;14.70;99.90;;;;;;5005505;28;19933;-62
2021/06/30 01:09:10;;;;;;;;;;;14.70;99.90;;;;;;5002118;28;20033;-62
2021/06/30 01:12:04;;;;;;;;;;;14.70;99.90;;;;;;5007159;28;19925;-63
2021/06/30 01:15:02;;;;;;;;;;;14.70;99.90;;;;;;5014470;28;19984;-62
2021/06/30 01:17:56;;;;;;;;;;;14.70;99.90;;;;;;5021432;28;19929;-62
2021/06/30 01:20:49;;;;;;;;;;;14.80;99.90;;;;;;5028148;28;19929;-63
2021/06/30 01:23:44;;;;;;;;;;;14.70;99.90;;;;;;5028532;28;19925;-63
2021/06/30 01:26:38;;;;;;;;;;;14.70;99.90;;;;;;5038433;28;19948;-63
2021/06/30 01:29:32;;;;;;;;;;;14.70;99.90;;;;;;5032338;28;19914;-63
2021/06/30 01:32:25;;;;;;;;;;;14.60;99.90;;;;;;5017172;28;19953;-63
2021/06/30 01:35:20;;;;;;;;;;;14.60;99.90;;;;;;5022767;28;19983;-63
2021/06/30 01:38:13;;;;;;;;;;;14.70;99.90;;;;;;5018629;28;19936;-63
2021/06/30 01:41:09;;;;;;;;;;;14.60;99.90;;;;;;5021460;28;19926;-63
2021/06/30 01:44:28;;;;;;;;;;;14.60;99.90;;;;;;5011871;28;19948;-62
2021/06/30 01:47:21;;;;;;;;;;;14.60;99.90;;;;;;5008255;28;19932;-63
2021/06/30 01:50:15;;;;;;;;;;;14.60;99.90;;;;;;5004337;28;19925;-62
2021/06/30 01:53:09;;;;;;;;;;;14.60;99.90;;;;;;5015058;28;19956;-62
2021/06/30 01:56:02;;;;;;;;;;;14.60;99.90;;;;;;5012310;28;19940;-62
2021/06/30 01:59:00;;;;;;;;;;;14.60;99.90;;;;;;5009995;28;19926;-62
2021/06/30 02:01:54;;;;;;;;;;;14.60;99.90;;;;;;5007239;28;19925;-63
2021/06/30 02:04:52;;;;;;;;;;;14.60;99.90;;;;;;5012356;28;20324;-65
2021/06/30 02:07:45;;;;;;;;;;;14.60;99.90;;;;;;5014611;28;19932;-63
2021/06/30 02:10:39;;;;;;;;;;;14.60;99.90;;;;;;5013548;28;19936;-62
2021/06/30 02:13:33;;;;;;;;;;;14.60;99.90;;;;;;5012445;28;19925;-63
2021/06/30 02:16:28;;;;;;;;;;;14.60;99.90;;;;;;5010469;28;20042;-62
2021/06/30 02:19:22;;;;;;;;;;;14.60;99.90;;;;;;5008728;28;19993;-63
2021/06/30 02:22:15;;;;;;;;;;;14.60;99.90;;;;;;5012057;28;19925;-63
2021/06/30 02:25:10;;;;;;;;;;;14.60;99.90;;;;;;5011993;28;20350;-63
2021/06/30 02:28:03;;;;;;;;;;;14.70;99.90;;;;;;5016145;28;19925;-63
2021/06/30 02:30:58;;;;;;;;;;;14.70;99.90;;;;;;5011054;28;19936;-63
2021/06/30 02:33:52;;;;;;;;;;;14.60;99.90;;;;;;5014089;28;19933;-63
2021/06/30 02:36:46;;;;;;;;;;;14.60;99.90;;;;;;5012957;28;19932;-64
2021/06/30 02:39:40;;;;;;;;;;;14.60;99.90;;;;;;5009554;28;19930;-63
2021/06/30 02:42:34;;;;;;;;;;;14.50;99.90;;;;;;5011186;28;20392;-63
2021/06/30 02:45:28;;;;;;;;;;;14.60;99.90;;;;;;5007468;28;19937;-62
2021/06/30 02:48:23;;;;;;;;;;;14.60;99.90;;;;;;5011006;28;20016;-63
2021/06/30 02:51:18;;;;;;;;;;;14.60;99.90;;;;;;5012616;28;19925;-63
2021/06/30 02:54:15;;;;;;;;;;;14.60;99.90;;;;;;5011100;28;19925;-63
2021/06/30 02:57:09;;;;;;;;;;;14.70;99.90;;;;;;5013134;28;19930;-65
2021/06/30 02:59:57;;;;;;;;;;;14.70;99.90;;;;;;5003368;28;19999;-62
2021/06/30 03:02:52;;;;;;;;;;;14.70;99.90;;;;;;5017614;28;19933;-63
2021/06/30 03:05:45;;;;;;;;;;;14.70;99.90;;;;;;5031512;28;19940;-63
2021/06/30 03:08:40;;;;;;;;;;;14.60;99.90;;;;;;5030414;28;19925;-62
2021/06/30 03:11:35;;;;;;;;;;;14.50;99.90;;;;;;5032401;28;19930;-63
2021/06/30 03:14:28;;;;;;;;;;;14.50;99.90;;;;;;5030032;28;19932;-63
2021/06/30 03:17:22;;;;;;;;;;;14.50;99.90;;;;;;5023723;28;20348;-63
2021/06/30 03:23:32;;;;;;;;;;;14.50;99.90;;;;;;5031234;28;20381;-65
2021/06/30 03:26:28;;;;;;;;;;;14.50;99.90;;;;;;5017673;28;20016;-63
2021/06/30 03:29:22;;;;;;;;;;;14.50;99.90;;;;;;5030890;28;20365;-62
2021/06/30 03:32:17;;;;;;;;;;;14.50;99.90;;;;;;5026179;28;20348;-62
2021/06/30 03:35:11;;;;;;;;;;;14.60;99.90;;;;;;5031247;28;19929;-65
2021/06/30 03:38:04;;;;;;;;;;;14.60;99.90;;;;;;5031160;28;20400;-63
2021/06/30 03:40:57;;;;;;;;;;;14.60;99.90;;;;;;5029427;28;19929;-63
2021/06/30 03:43:52;;;;;;;;;;;14.70;99.90;;;;;;5030169;28;19935;-62
2021/06/30 03:47:12;;;;;;;;;;;14.80;99.90;;;;;;5023977;28;19929;-63
2021/06/30 03:50:06;;;;;;;;;;;15.00;99.90;;;;;;5031937;28;20328;-62
2021/06/30 03:53:00;;;;;;;;;;;15.00;99.90;;;;;;5029477;28;20320;-62
2021/06/30 03:55:53;;;;;;;;;;;15.10;99.90;;;;;;5029830;28;19948;-63
2021/06/30 03:58:47;;;;;;;;;;;15.10;99.90;;;;;;5030598;28;19925;-62
2021/06/30 04:01:42;;;;;;;;;;;15.20;99.90;;;;;;5023312;28;19979;-63
2021/06/30 04:04:36;;;;;;;;;;;15.30;99.90;;;;;;5021692;28;19929;-63
2021/06/30 04:07:29;;;;;;;;;;;15.30;99.90;;;;;;5021910;28;20007;-64
2021/06/30 04:10:22;;;;;;;;;;;15.50;99.90;;;;;;5022442;28;20004;-62
2021/06/30 04:13:16;;;;;;;;;;;15.60;99.90;;;;;;5021183;28;19949;-65
2021/06/30 04:16:10;;;;;;;;;;;15.60;99.90;;;;;;5015265;28;19976;-63
2021/06/30 04:19:05;;;;;;;;;;;15.60;99.90;;;;;;5029508;28;20264;-63
2021/06/30 04:22:00;;;;;;;;;;;15.90;99.90;;;;;;5024616;28;19936;-63
2021/06/30 04:24:54;;;;;;;;;;;16.10;99.90;;;;;;5030043;28;19952;-62
2021/06/30 04:27:48;;;;;;;;;;;16.10;99.90;;;;;;5026189;28;19925;-63
2021/06/30 04:30:41;;;;;;;;;;;16.10;99.90;;;;;;5022131;28;19925;-63
2021/06/30 04:33:35;;;;;;;;;;;16.00;99.90;;;;;;5022194;28;20349;-63
2021/06/30 04:36:29;;;;;;;;;;;15.90;99.90;;;;;;5020973;28;19937;-63
2021/06/30 04:39:23;;;;;;;;;;;15.90;99.90;;;;;;5020967;28;20286;-63
2021/06/30 04:42:18;;;;;;;;;;;15.90;99.90;;;;;;5022116;28;19925;-65
2021/06/30 04:45:12;;;;;;;;;;;15.90;99.90;;;;;;5020105;28;19961;-62
2021/06/30 04:48:05;;;;;;;;;;;15.80;99.90;;;;;;5014787;28;19933;-62
2021/06/30 04:50:59;;;;;;;;;;;15.80;99.90;;;;;;5013269;28;20277;-63
2021/06/30 04:57:11;;;;;;;;;;;15.80;99.90;;;;;;5012640;28;19930;-63
2021/06/30 05:00:06;;;;;;;;;;;15.70;99.90;;;;;;5015131;28;20360;-62
2021/06/30 05:03:00;;;;;;;;;;;15.70;99.90;;;;;;5021764;28;20389;-63
2021/06/30 05:05:54;;;;;;;;;;;15.60;99.90;;;;;;5037558;28;19932;-63
2021/06/30 05:08:48;;;;;;;;;;;15.60;99.90;;;;;;5019638;28;19925;-63
2021/06/30 05:11:43;;;;;;;;;;;15.50;99.90;;;;;;5034159;28;19936;-62
2021/06/30 05:14:36;;;;;;;;;;;15.50;99.90;;;;;;5035598;28;20365;-63
2021/06/30 05:17:29;;;;;;;;;;;15.60;99.90;;;;;;5018042;28;19925;-63
2021/06/30 05:20:23;;;;;;;;;;;15.60;99.90;;;;;;5018833;28;19925;-62
2021/06/30 05:23:17;;;;;;;;;;;15.70;99.90;;;;;;5025964;28;19976;-63
2021/06/30 05:26:10;;;;;;;;;;;15.70;99.90;;;;;;5012170;28;20378;-62
2021/06/30 05:29:05;;;;;;;;;;;15.70;99.90;;;;;;5014644;28;19925;-63
2021/06/30 05:31:59;;;;;;;;;;;15.60;99.90;;;;;;5027563;28;20000;-62
2021/06/30 05:34:53;;;;;;;;;;;15.70;99.90;;;;;;5039280;28;20274;-63
2021/06/30 05:37:46;;;;;;;;;;;15.70;99.90;;;;;;5044482;28;19925;-63
2021/06/30 05:40:40;;;;;;;;;;;15.70;99.90;;;;;;5036086;28;19947;-63
2021/06/30 05:43:36;;;;;;;;;;;15.70;99.90;;;;;;5042085;28;19940;-62
2021/06/30 05:46:31;;;;;;;;;;;15.80;99.90;;;;;;5034523;28;19925;-64
2021/06/30 05:49:24;;;;;;;;;;;15.90;99.90;;;;;;5047101;28;19931;-63
2021/06/30 05:52:18;;;;;;;;;;;16.00;99.90;;;;;;5039230;28;20344;-63
2021/06/30 05:55:12;;;;;;;;;;;16.10;99.90;;;;;;5034549;28;19933;-62
2021/06/30 05:58:06;;;;;;;;;;;16.20;99.90;;;;;;5036358;28;19925;-62
2021/06/30 06:04:18;;;;;;;;;;;16.30;99.90;;;;;;5021949;28;19925;-63
2021/06/30 06:07:12;;;;;;;;;;;16.40;99.90;;;;;;5014517;28;19940;-62
2021/06/30 06:10:06;;;;;;;;;;;16.40;99.90;;;;;;5010880;28;19932;-63
2021/06/30 06:12:59;;;;;;;;;;;16.40;99.90;;;;;;5009870;28;19945;-62
2021/06/30 06:15:53;;;;;;;;;;;16.30;99.90;;;;;;5003900;28;20005;-63
2021/06/30 06:18:42;;;;;;;;;;;16.40;99.90;;;;;;5000189;28;19929;-63
2021/06/30 06:21:37;;;;;;;;;;;16.40;99.90;;;;;;5003257;28;20389;-63
2021/06/30 06:24:30;;;;;;;;;;;16.70;99.90;;;;;;5015205;28;19932;-63
2021/06/30 06:27:24;;;;;;;;;;;16.80;99.90;;;;;;5019112;28;19925;-63
2021/06/30 06:30:21;;;;;;;;;;;16.80;99.90;;;;;;5026925;28;19925;-63
2021/06/30 06:33:14;;;;;;;;;;;17.10;99.90;;;;;;5005631;28;19929;-63
2021/06/30 06:36:09;;;;;;;;;;;17.30;99.90;;;;;;5024582;28;19925;-63
2021/06/30 06:39:04;;;;;;;;;;;17.20;99.90;;;;;;5019961;28;20061;-65
2021/06/30 06:41:57;;;;;;;;;;;17.40;99.90;;;;;;5024151;28;19983;-63
2021/06/30 06:44:51;;;;;;;;;;;17.40;99.90;;;;;;5018987;28;19929;-63
2021/06/30 06:47:44;;;;;;;;;;;17.30;99.90;;;;;;5009874;28;19937;-64
2021/06/30 06:50:37;;;;;;;;;;;17.00;99.90;;;;;;5013196;28;19932;-63
2021/06/30 06:53:31;;;;;;;;;;;16.90;99.90;;;;;;5007164;28;20391;-63
2021/06/30 06:56:27;;;;;;;;;;;16.90;99.90;;;;;;5006084;28;19925;-63
2021/06/30 06:59:24;;;;;;;;;;;16.90;99.90;;;;;;5010036;28;19930;-63
2021/06/30 07:02:12;;;;;;;;;;;16.70;99.90;;;;;;5008709;28;19929;-63
2021/06/30 07:05:06;;;;;;;;;;;16.70;99.90;;;;;;5011868;28;20389;-63
2021/06/30 07:08:01;;;;;;;;;;;16.60;99.90;;;;;;5009733;28;19930;-63
2021/06/30 07:10:54;;;;;;;;;;;16.60;99.90;;;;;;5011632;28;19973;-63
2021/06/30 07:13:49;;;;;;;;;;;16.60;99.90;;;;;;5007483;28;19925;-63
2021/06/30 07:16:43;;;;;;;;;;;16.70;99.90;;;;;;5006381;28;19949;-63
2021/06/30 07:19:36;;;;;;;;;;;16.80;99.90;;;;;;5012414;28;19925;-62
2021/06/30 07:22:30;;;;;;;;;;;16.80;99.90;;;;;;5011680;28;19925;-62
2021/06/30 07:25:23;;;;;;;;;;;16.80;99.90;;;;;;5012094;28;20273;-62
2021/06/30 07:28:17;;;;;;;;;;;16.60;99.90;;;;;;4999428;28;19925;-62
2021/06/30 07:31:12;;;;;;;;;;;16.80;99.90;;;;;;4997384;28;19930;-62
2021/06/30 07:34:06;;;;;;;;;;;17.10;99.90;;;;;;5006154;28;19929;-62
2021/06/30 07:36:59;;;;;;;;;;;17.40;99.90;;;;;;5012789;28;19926;-61
2021/06/30 07:39:53;;;;;;;;;;;17.40;99.90;;;;;;5011828;28;20069;-63
2021/06/30 07:42:42;;;;;;;;;;;17.60;99.90;;;;;;5012172;28;19936;-61
2021/06/30 07:45:36;;;;;;;;;;;18.10;99.90;;;;;;5002481;28;19933;-62
2021/06/30 07:48:26;;;;;;;;;;;18.30;99.90;;;;;;5011513;28;20023;-63
2021/06/30 07:51:14;;;;;;;;;;;17.80;99.90;;;;;;5009575;28;20393;-63
2021/06/30 07:54:03;;;;;;;;;;;17.70;99.90;;;;;;4998710;28;19937;-62
2021/06/30 07:56:52;;;;;;;;;;;17.80;99.90;;;;;;5014490;28;20385;-62
2021/06/30 07:59:41;;;;;;;;;;;17.80;99.90;;;;;;5013271;28;19933;-62
2021/06/30 08:02:29;;;;;;;;;;;17.80;99.90;;;;;;5016470;28;19929;-62
2021/06/30 08:05:20;;;;;;;;;;;17.70;99.90;;;;;;5012851;28;19932;-62
2021/06/30 08:08:32;;;;;;;;;;;17.50;99.90;;;;;;5012775;28;19979;-62
2021/06/30 08:11:23;;;;;;;;;;;17.20;99.90;;;;;;5016958;28;20389;-62
2021/06/30 08:14:12;;;;;;;;;;;17.10;99.90;;;;;;5009758;28;19937;-62
2021/06/30 08:17:01;;;;;;;;;;;17.20;99.90;;;;;;5005446;28;20277;-63
2021/06/30 08:19:50;;;;;;;;;;;17.30;99.90;;;;;;5008172;28;19929;-64
2021/06/30 08:22:39;;;;;;;;;;;17.40;99.90;;;;;;5014164;28;19925;-63
2021/06/30 08:25:28;;;;;;;;;;;17.70;99.90;;;;;;5015931;28;19945;-63
2021/06/30 08:28:22;;;;;;;;;;;18.10;99.90;;;;;;5014922;28;19932;-63
2021/06/30 08:31:11;;;;;;;;;;;17.90;99.90;;;;;;5005645;28;20453;-63
2021/06/30 08:33:59;;;;;;;;;;;18.30;99.90;;;;;;5015104;28;19996;-63
2021/06/30 08:36:49;;;;;;;;;;;18.50;99.90;;;;;;5006691;28;19926;-63
2021/06/30 08:39:39;;;;;;;;;;;18.40;99.90;;;;;;5014577;28;19925;-63
2021/06/30 08:42:28;;;;;;;;;;;18.10;99.90;;;;;;5015915;28;19926;-64
2021/06/30 08:45:17;;;;;;;;;;;18.10;99.90;;;;;;5014898;28;19929;-63
2021/06/30 08:48:09;;;;;;;;;;;18.20;99.90;;;;;;5012230;28;19925;-63
2021/06/30 08:50:58;;;;;;;;;;;18.30;99.90;;;;;;5009333;28;19926;-63
2021/06/30 08:53:47;;;;;;;;;;;18.40;99.90;;;;;;5010855;28;19930;-64
2021/06/30 08:56:41;;;;;;;;;;;18.30;99.90;;;;;;5013008;28;19940;-63
2021/06/30 08:59:29;;;;;;;;;;;17.90;99.90;;;;;;5013994;28;19936;-63
2021/06/30 09:02:21;;;;;;;;;;;17.80;99.90;;;;;;5012827;28;19925;-63
2021/06/30 09:05:24;;;;;;;;;;;17.70;99.90;;;;;;5036970;28;19936;-66
2021/06/30 09:08:13;;;;;;;;;;;17.60;99.90;;;;;;5035355;28;19929;-66
2021/06/30 09:11:10;;;;;;;;;;;18.50;99.90;;;;;;5031260;28;20274;-63
2021/06/30 09:14:23;;;;;;;;;;;19.00;99.90;;;;;;5035105;28;20005;-63
2021/06/30 09:17:18;;;;;;;;;;;18.40;99.90;;;;;;5028290;28;20478;-64
2021/06/30 09:20:08;;;;;;;;;;;17.90;99.90;;;;;;5027580;28;19932;-63
2021/06/30 09:22:57;;;;;;;;;;;18.30;99.90;;;;;;5020981;28;19994;-63
2021/06/30 09:25:48;;;;;;;;;;;21.30;99.90;;;;;;5036791;28;19929;-63
2021/06/30 09:28:42;;;;;;;;;;;23.00;99.90;;;;;;5034467;28;19932;-63
2021/06/30 09:31:38;;;;;;;;;;;22.80;99.90;;;;;;5027765;28;19948;-64
2021/06/30 09:34:27;;;;;;;;;;;20.80;99.90;;;;;;5035402;28;20379;-64
2021/06/30 09:37:16;;;;;;;;;;;19.50;99.90;;;;;;5029552;28;19929;-64
2021/06/30 09:40:05;;;;;;;;;;;19.10;99.90;;;;;;5032227;28;20015;-63
2021/06/30 09:42:55;;;;;;;;;;;18.90;99.90;;;;;;5033233;28;19928;-64
2021/06/30 09:45:44;;;;;;;;;;;19.00;99.90;;;;;;5025694;28;19925;-63
2021/06/30 09:48:35;;;;;;;;;;;19.40;99.90;;;;;;5031629;28;20436;-63
2021/06/30 09:51:23;;;;;;;;;;;19.90;99.90;;;;;;5032267;28;19933;-63
2021/06/30 09:54:13;;;;;;;;;;;19.70;99.90;;;;;;5033339;28;19925;-65
2021/06/30 09:57:03;;;;;;;;;;;19.60;99.90;;;;;;5029379;28;19952;-63
2021/06/30 09:59:57;;;;;;;;;;;19.80;99.90;;;;;;5032004;28;19937;-63
2021/06/30 10:02:48;;;;;;;;;;;19.90;99.90;;;;;;5032175;28;19933;-64
2021/06/30 10:05:40;;;;;;;;;;;20.20;99.90;;;;;;5033011;28;20011;-63
2021/06/30 10:08:38;;;;;;;;;;;20.30;99.90;;;;;;5028281;28;19925;-63
2021/06/30 10:11:34;;;;;;;;;;;20.40;99.90;;;;;;5032497;28;20384;-63
2021/06/30 10:14:22;;;;;;;;;;;21.10;99.90;;;;;;5035186;28;20305;-64
2021/06/30 10:17:12;;;;;;;;;;;21.70;99.90;;;;;;5020829;28;19937;-63
2021/06/30 10:20:02;;;;;;;;;;;21.70;99.90;;;;;;5033656;28;19940;-63
2021/06/30 10:22:52;;;;;;;;;;;22.00;99.90;;;;;;5029328;28;19960;-63
2021/06/30 10:25:41;;;;;;;;;;;22.30;99.50;;;;;;5029392;28;20052;-63
2021/06/30 10:28:31;;;;;;;;;;;21.20;99.90;;;;;;5028369;28;19925;-63
2021/06/30 10:31:19;;;;;;;;;;;20.80;99.90;;;;;;5021686;28;19948;-63
2021/06/30 10:34:09;;;;;;;;;;;20.80;99.90;;;;;;5034087;28;19932;-64
2021/06/30 10:36:57;;;;;;;;;;;21.30;99.90;;;;;;5033368;28;20269;-62
2021/06/30 10:39:48;;;;;;;;;;;21.20;99.90;;;;;;5026881;28;19925;-64
2021/06/30 10:42:38;;;;;;;;;;;21.10;99.90;;;;;;5033205;28;20280;-63
2021/06/30 10:45:26;;;;;;;;;;;21.00;99.90;;;;;;5025698;28;19948;-64
2021/06/30 10:48:15;;;;;;;;;;;20.70;99.90;;;;;;5030742;28;19925;-63
2021/06/30 10:51:03;;;;;;;;;;;20.80;99.90;;;;;;5026822;28;19929;-63
2021/06/30 10:57:34;;;;;;;;;;;20.20;99.90;;;;;;5030530;28;19929;-63
2021/06/30 11:00:24;;;;;;;;;;;19.80;99.90;;;;;;4986278;28;19934;-63
2021/06/30 11:03:24;;;;;;;;;;;19.30;99.90;;;;;;5028854;28;19932;-64
2021/06/30 11:06:26;;;;;;;;;;;19.00;99.90;;;;;;5020435;28;19992;-63
2021/06/30 11:09:25;;;;;;;;;;;18.70;99.90;;;;;;5032465;28;19930;-65
2021/06/30 11:12:14;;;;;;;;;;;18.70;99.90;;;;;;5032213;28;19952;-63
2021/06/30 11:15:04;;;;;;;;;;;18.80;99.90;;;;;;5019505;28;19929;-63
2021/06/30 11:17:54;;;;;;;;;;;18.90;99.90;;;;;;5026161;28;19985;-64
2021/06/30 11:20:43;;;;;;;;;;;19.20;99.90;;;;;;5023786;28;19926;-63
2021/06/30 11:23:39;;;;;;;;;;;19.40;99.90;;;;;;5026610;28;19926;-64
2021/06/30 11:26:35;;;;;;;;;;;19.60;99.90;;;;;;5012262;28;19936;-64
2021/06/30 11:29:54;;;;;;;;;;;19.80;99.90;;;;;;5009880;28;19932;-63
2021/06/30 11:32:44;;;;;;;;;;;19.60;99.90;;;;;;4956349;28;20037;-63
2021/06/30 11:35:37;;;;;;;;;;;20.00;99.90;;;;;;5009722;28;19933;-64
2021/06/30 11:38:27;;;;;;;;;;;20.50;99.90;;;;;;5015746;28;19945;-63
2021/06/30 11:41:40;;;;;;;;;;;20.30;99.90;;;;;;5016341;28;20012;-63
2021/06/30 11:44:35;;;;;;;;;;;20.30;99.60;;;;;;5015630;28;19926;-64
2021/06/30 11:47:25;;;;;;;;;;;20.30;99.90;;;;;;5008184;28;19932;-63
2021/06/30 11:50:17;;;;;;;;;;;20.20;99.80;;;;;;5016192;28;19925;-64
2021/06/30 11:53:07;;;;;;;;;;;20.30;99.90;;;;;;5009823;28;19933;-63
2021/06/30 11:55:56;;;;;;;;;;;20.20;99.90;;;;;;5007936;28;19941;-64
2021/06/30 11:58:47;;;;;;;;;;;19.70;99.90;;;;;;5015664;28;19926;-63
2021/06/30 12:01:38;;;;;;;;;;;19.70;99.90;;;;;;5005723;28;20385;-63
2021/06/30 12:04:28;;;;;;;;;;;19.70;99.90;;;;;;4992235;28;19933;-63
2021/06/30 12:07:16;;;;;;;;;;;19.60;99.90;;;;;;4988006;28;19926;-64
2021/06/30 12:10:07;;;;;;;;;;;19.50;99.90;;;;;;4995349;28;19942;-63
2021/06/30 12:12:56;;;;;;;;;;;19.40;99.90;;;;;;4983543;28;19926;-64
2021/06/30 12:15:45;;;;;;;;;;;19.30;99.90;;;;;;4985250;28;19926;-64
2021/06/30 12:18:33;;;;;;;;;;;19.40;99.90;;;;;;5020954;28;19938;-63
2021/06/30 12:21:22;;;;;;;;;;;19.80;99.90;;;;;;5019979;28;19936;-64
2021/06/30 12:24:15;;;;;;;;;;;20.20;99.90;;;;;;5017678;28;20380;-63
2021/06/30 12:27:06;;;;;;;;;;;20.40;99.90;;;;;;5008687;28;19926;-63
2021/06/30 12:29:57;;;;;;;;;;;20.60;99.80;;;;;;5016743;28;19929;-64
2021/06/30 12:32:47;;;;;;;;;;;20.50;98.90;;;;;;5015160;28;19936;-63
2021/06/30 12:35:37;;;;;;;;;;;20.60;99.60;;;;;;5014316;28;19929;-64
2021/06/30 12:38:27;;;;;;;;;;;20.80;98.30;;;;;;5019985;28;20347;-63
2021/06/30 12:41:41;;;;;;;;;;;20.90;98.10;;;;;;5013227;28;19933;-64
2021/06/30 12:44:32;;;;;;;;;;;21.10;98.70;;;;;;4999964;28;19939;-63
2021/06/30 12:47:20;;;;;;;;;;;21.50;99.00;;;;;;5007850;28;20289;-64
2021/06/30 12:50:09;;;;;;;;;;;21.00;98.70;;;;;;5008963;28;19925;-63
2021/06/30 12:53:01;;;;;;;;;;;20.70;99.80;;;;;;5009672;28;20136;-63
2021/06/30 12:55:50;;;;;;;;;;;20.30;99.90;;;;;;5023296;28;19925;-63
2021/06/30 12:58:41;;;;;;;;;;;19.80;99.90;;;;;;5012120;28;19933;-63
2021/06/30 13:01:32;;;;;;;;;;;19.60;99.90;;;;;;4995722;28;20378;-64
2021/06/30 13:04:28;;;;;;;;;;;19.50;99.90;;;;;;5018879;28;19969;-64
2021/06/30 13:07:17;;;;;;;;;;;19.40;99.90;;;;;;5013928;28;20370;-63
2021/06/30 13:10:12;;;;;;;;;;;19.60;99.90;;;;;;5002145;28;19936;-63
2021/06/30 13:13:05;;;;;;;;;;;19.80;99.90;;;;;;5017501;28;19937;-63
2021/06/30 13:16:05;;;;;;;;;;;19.90;99.90;;;;;;5015528;28;20003;-65
2021/06/30 13:18:56;;;;;;;;;;;20.00;99.90;;;;;;5000203;28;19972;-63
2021/06/30 13:21:52;;;;;;;;;;;20.00;99.90;;;;;;5020891;28;19925;-64
2021/06/30 13:24:44;;;;;;;;;;;20.20;99.90;;;;;;5025011;28;20011;-63
2021/06/30 13:27:40;;;;;;;;;;;20.60;99.90;;;;;;5025682;28;19925;-64
2021/06/30 13:36:43;;;;;;;;;;;20.70;98.80;;;;;;5015592;28;20011;-63
2021/06/30 13:39:31;;;;;;;;;;;20.70;97.80;;;;;;5024578;28;19932;-64
2021/06/30 13:42:20;;;;;;;;;;;20.80;98.40;;;;;;5017257;28;20016;-65
2021/06/30 13:48:23;;;;;;;;;;;20.30;99.10;;;;;;5021982;28;20248;-64
2021/06/30 13:51:13;;;;;;;;;;;20.50;98.80;;;;;;4996550;28;20300;-63
2021/06/30 13:54:04;;;;;;;;;;;20.50;99.30;;;;;;5004817;28;19932;-64
2021/06/30 13:56:53;;;;;;;;;;;20.70;99.30;;;;;;5022912;28;19948;-64
2021/06/30 13:59:41;;;;;;;;;;;20.90;99.40;;;;;;5014889;28;19984;-63
2021/06/30 14:02:31;;;;;;;;;;;20.90;99.40;;;;;;5013141;28;19926;-63
2021/06/30 14:05:20;;;;;;;;;;;21.30;99.30;;;;;;5033312;28;19925;-64
2021/06/30 14:08:13;;;;;;;;;;;21.00;99.10;;;;;;5047017;28;19929;-63
2021/06/30 14:11:04;;;;;;;;;;;20.70;99.90;;;;;;5030229;28;19925;-63
2021/06/30 14:13:53;;;;;;;;;;;20.70;99.90;;;;;;5030598;28;19925;-63
2021/06/30 14:16:41;;;;;;;;;;;20.20;99.90;;;;;;5027954;28;19955;-63
2021/06/30 14:19:31;;;;;;;;;;;20.80;99.90;;;;;;5032786;28;20090;-63
2021/06/30 14:22:21;;;;;;;;;;;21.00;99.90;;;;;;5041096;28;19932;-63
2021/06/30 14:25:10;;;;;;;;;;;21.20;99.90;;;;;;5032343;28;20010;-63
2021/06/30 14:27:59;;;;;;;;;;;21.10;99.90;;;;;;5033506;28;19932;-63
2021/06/30 14:30:51;;;;;;;;;;;21.30;99.90;;;;;;5015573;28;19957;-63
2021/06/30 14:33:46;;;;;;;;;;;21.00;99.90;;;;;;5032440;28;20120;-63
2021/06/30 14:36:34;;;;;;;;;;;20.80;99.80;;;;;;5037410;28;19940;-63
2021/06/30 14:39:24;;;;;;;;;;;20.80;99.90;;;;;;5032456;28;20011;-63
2021/06/30 14:42:16;;;;;;;;;;;21.10;99.70;;;;;;5043734;28;20037;-63
2021/06/30 14:45:07;;;;;;;;;;;21.20;98.50;;;;;;5027575;28;19978;-63
2021/06/30 14:47:58;;;;;;;;;;;21.30;97.90;;;;;;5024231;28;19951;-63
2021/06/30 14:50:47;;;;;;;;;;;21.10;97.00;;;;;;5027722;28;19936;-64
2021/06/30 14:53:36;;;;;;;;;;;21.10;95.60;;;;;;5030111;28;20398;-63
2021/06/30 14:56:25;;;;;;;;;;;21.20;95.50;;;;;;5028552;28;20285;-64
2021/06/30 14:59:38;;;;;;;;;;;21.20;95.40;;;;;;5027878;28;19980;-63
2021/06/30 15:02:29;;;;;;;;;;;21.30;95.30;;;;;;5023341;28;19937;-64
2021/06/30 15:05:43;;;;;;;;;;;21.10;95.80;;;;;;5030179;28;19925;-63
2021/06/30 15:08:32;;;;;;;;;;;21.10;96.70;;;;;;5029184;28;19925;-63
2021/06/30 15:11:25;;;;;;;;;;;21.00;96.90;;;;;;5030132;28;19925;-63
2021/06/30 15:14:14;;;;;;;;;;;20.80;97.30;;;;;;5028236;28;19932;-63
2021/06/30 15:17:02;;;;;;;;;;;20.70;97.60;;;;;;5018955;28;19933;-63
2021/06/30 15:19:53;;;;;;;;;;;20.60;98.20;;;;;;5033131;28;20391;-63
2021/06/30 15:22:41;;;;;;;;;;;20.60;98.30;;;;;;5018975;28;19930;-63
2021/06/30 15:25:31;;;;;;;;;;;20.70;98.50;;;;;;5011452;28;19925;-63
2021/06/30 15:28:19;;;;;;;;;;;20.60;98.80;;;;;;5014612;28;19929;-63
2021/06/30 15:31:10;;;;;;;;;;;20.80;99.40;;;;;;5018060;28;20020;-63
2021/06/30 15:33:59;;;;;;;;;;;21.00;99.20;;;;;;5027333;28;19933;-63
2021/06/30 15:36:51;;;;;;;;;;;21.40;98.10;;;;;;5028140;28;19937;-63
2021/06/30 15:39:39;;;;;;;;;;;21.50;95.50;;;;;;5029029;28;20265;-63
2021/06/30 15:42:28;;;;;;;;;;;21.40;95.80;;;;;;5029067;28;20028;-62
2021/06/30 15:45:18;;;;;;;;;;;21.10;96.20;;;;;;5019944;28;19929;-63
2021/06/30 15:48:07;;;;;;;;;;;21.40;96.20;;;;;;5031285;28;19931;-63
2021/06/30 15:51:20;;;;;;;;;;;21.50;95.90;;;;;;5030042;28;20361;-63
2021/06/30 15:54:10;;;;;;;;;;;21.30;95.50;;;;;;5027455;28;19932;-62
2021/06/30 15:56:59;;;;;;;;;;;21.10;95.70;;;;;;5035018;28;19972;-64
2021/06/30 15:59:48;;;;;;;;;;;20.90;96.40;;;;;;5044567;28;19933;-63
2021/06/30 16:02:37;;;;;;;;;;;20.80;97.00;;;;;;5047565;28;19948;-64
2021/06/30 16:05:52;;;;;;;;;;;20.80;97.40;;;;;;5026615;28;19960;-63
2021/06/30 16:08:40;;;;;;;;;;;20.80;97.30;;;;;;5032039;28;19933;-63
2021/06/30 16:11:32;;;;;;;;;;;20.70;97.80;;;;;;5011553;28;19937;-64
2021/06/30 16:14:23;;;;;;;;;;;21.00;97.70;;;;;;5016627;28;19956;-63
2021/06/30 16:17:11;;;;;;;;;;;20.90;97.90;;;;;;4999568;28;19987;-63
2021/06/30 16:20:00;;;;;;;;;;;20.80;98.40;;;;;;5010115;28;19929;-64
2021/06/30 16:22:49;;;;;;;;;;;21.00;98.50;;;;;;5011295;28;19933;-63
2021/06/30 16:25:53;;;;;;;;;;;20.30;98.70;;;;;;5012896;28;19925;-64
2021/06/30 16:28:43;;;;;;;;;;;20.50;98.90;;;;;;5009876;28;20365;-64
2021/06/30 16:31:32;;;;;;;;;;;20.40;99.30;;;;;;5003416;28;20034;-64
2021/06/30 16:34:21;;;;;;;;;;;20.70;99.10;;;;;;5007000;28;19969;-64
2021/06/30 16:37:10;;;;;;;;;;;20.90;98.70;;;;;;5007624;28;19932;-63
2021/06/30 16:39:58;;;;;;;;;;;21.00;96.40;;;;;;5008223;28;19940;-63
2021/06/30 16:42:48;;;;;;;;;;;21.10;94.80;;;;;;5012567;28;19925;-62
2021/06/30 16:45:38;;;;;;;;;;;21.00;95.10;;;;;;4999823;28;19933;-63
2021/06/30 16:48:27;;;;;;;;;;;20.80;95.90;;;;;;4985660;28;19926;-63
2021/06/30 16:51:17;;;;;;;;;;;20.60;97.60;;;;;;4987127;28;19925;-64
2021/06/30 16:54:06;;;;;;;;;;;20.50;98.50;;;;;;4992672;28;20354;-63
2021/06/30 16:56:54;;;;;;;;;;;20.20;98.50;;;;;;4992545;28;19925;-65
2021/06/30 16:59:43;;;;;;;;;;;19.80;99.00;;;;;;4993127;28;19941;-63
2021/06/30 17:02:33;;;;;;;;;;;19.70;99.30;;;;;;4996515;28;19926;-65
2021/06/30 17:05:24;;;;;;;;;;;19.50;99.80;;;;;;5000497;28;19995;-63
2021/06/30 17:08:13;;;;;;;;;;;19.40;99.90;;;;;;4998096;28;19944;-63
2021/06/30 17:11:04;;;;;;;;;;;19.20;99.90;;;;;;4992866;28;19926;-64